Terminal Aerodrome Forecast
Issued by NWS Twin Cities, MN

Home | Current Version | Previous Version | Graphics & Text | Print | Product List | Glossary On
Versions: 1 2 3 4 5 6 7 8 9 10 11 12 13 14 15 16 17 18 19 20 21 22 23 24 25 26 27 28 29 30 31
268
FTUS43 KMPX 230850 AAA
TAFMSP
TAF AMD
KMSP 230850Z 2309/2412 17014G20KT P6SM BKN200
     FM231200 18014G21KT P6SM VCSH FEW025 BKN040 OVC100
      TEMPO 2312/2314 6SM -TSRA BKN040CB OVC100
     FM231400 18015G22KT P6SM BKN040 OVC100
     FM231800 19014G20KT P6SM VCSH SCT025 OVC050 PROB30 2320/2324
      6SM -TSRA BKN030CB
     FM240000 18008KT 6SM -SHRA BKN060
     FM240600 20005KT P6SM BKN090=

USA.gov is the U.S. government's official web portal to all federal, state and local government web resources and services.